»·PEaware :: UAL576 KRNO-KONT

UAL576 :: KRNO-KONT

FLIGHT INFORMATION

Flight Status: Arrived
Operator:
United Airlines
More flights by this operator :: More flights under this callsign
Pilot: Anonymous 8274 (8274)
Aircraft: BOEING 737-200
(B732)
More flights by this aircraft type
Origin: KRNO Reno/Tahoe Intl
United States
Destination: KONT Ontario Intl
United States
More flights between these airports :: More routes between these airports
Route: + RENO9 FMG J5 EHF ZIGGY7
File this flight plan on PilotEdge
Remarks:
Altitude:
(Current/Filed)
29,000ft
Speed:
(Current/Filed)
470kts
Departed: 27-Sep-18 05:45 PM
Arrived: 27-Sep-18 06:50 PM
Distance/Time
Traveled:
343nm/1:05
Distance/Time
To Go:
Arrived

Flight Plot

Page will automatically refresh every two minutes.

Flight plan parsing failed; only flown route is shown


Map Options




Map Legend


Flown Route
Filed Route
Departure Airport
Arrival Airport
Navaid (VOR, NDB)
Fix

Horizontal Profiles

Position Reports

Time Latitude Longitude Heading Altitude Ground
Speed
27-Sep-18 17:19 39.507417 -119.773482 198 4417ft 0kts
27-Sep-18 17:20 39.507417 -119.773482 198 4417ft 0kts
27-Sep-18 17:21 39.507417 -119.773482 198 4417ft 0kts
27-Sep-18 17:22 39.507417 -119.773482 198 4417ft 0kts
27-Sep-18 17:23 39.507417 -119.773482 198 4417ft 0kts
27-Sep-18 17:24 39.507417 -119.773482 198 4417ft 0kts
27-Sep-18 17:25 39.507417 -119.773482 198 4417ft 0kts
27-Sep-18 17:26 39.507417 -119.773482 198 4417ft 0kts
27-Sep-18 17:27 39.507417 -119.773482 198 4417ft 0kts
27-Sep-18 17:28 39.507417 -119.773482 198 4417ft 0kts
27-Sep-18 17:29 39.507417 -119.773482 198 4417ft 0kts
27-Sep-18 17:30 39.507417 -119.773482 198 4417ft 0kts
27-Sep-18 17:31 39.507417 -119.773482 198 4417ft 0kts
27-Sep-18 17:32 39.507417 -119.773482 198 4417ft 0kts
27-Sep-18 17:33 39.507465 -119.773461 198 4417ft 2kts
27-Sep-18 17:34 39.507965 -119.773419 128 4417ft 2kts
27-Sep-18 17:35 39.508017 -119.773619 90 4417ft 0kts
27-Sep-18 17:36 39.508017 -119.773618 90 4417ft 0kts
27-Sep-18 17:37 39.508017 -119.773618 90 4417ft 0kts
27-Sep-18 17:38 39.508017 -119.773618 90 4417ft 0kts
27-Sep-18 17:39 39.508013 -119.772357 89 4417ft 7kts
27-Sep-18 17:40 39.509897 -119.771483 0 4417ft 14kts
27-Sep-18 17:41 39.513748 -119.770816 90 4417ft 12kts
27-Sep-18 17:42 39.513743 -119.770449 90 4417ft 0kts
27-Sep-18 17:43 39.513743 -119.770449 90 4417ft 0kts
27-Sep-18 17:44 39.513743 -119.770449 90 4417ft 0kts
27-Sep-18 17:45 39.513740 -119.770159 90 4417ft 8kts
27-Sep-18 17:46 39.513303 -119.769216 180 4417ft 0kts
27-Sep-18 17:47 39.485182 -119.769460 180 4797ft 158kts
27-Sep-18 17:48 39.439380 -119.768067 182 6294ft 180kts
27-Sep-18 17:49 39.382355 -119.768332 177 7719ft 230kts
27-Sep-18 17:50 39.310496 -119.769298 182 9362ft 283kts
27-Sep-18 17:51 39.236483 -119.735794 143 11338ft 312kts
27-Sep-18 17:52 39.163662 -119.664126 143 13179ft 337kts
27-Sep-18 17:53 39.089276 -119.586915 142 15149ft 349kts
27-Sep-18 17:54 38.996927 -119.565836 180 16947ft 349kts
27-Sep-18 17:55 38.899795 -119.566085 180 18571ft 356kts
27-Sep-18 17:56 38.800922 -119.561523 176 19989ft 365kts
27-Sep-18 17:57 38.699111 -119.547119 174 21263ft 373kts
27-Sep-18 17:58 38.595924 -119.530967 173 22394ft 380kts
27-Sep-18 17:59 38.490506 -119.512391 173 23424ft 386kts
27-Sep-18 18:00 38.383559 -119.493246 173 24330ft 392kts
27-Sep-18 18:01 38.274900 -119.473895 173 25121ft 398kts
27-Sep-18 18:02 38.164860 -119.454586 173 25835ft 403kts
27-Sep-18 18:03 38.053545 -119.436960 176 26475ft 407kts
27-Sep-18 18:04 37.940670 -119.425717 176 27072ft 411kts
27-Sep-18 18:05 37.828933 -119.414366 176 27581ft 415kts
27-Sep-18 18:06 37.714527 -119.402894 176 28115ft 418kts
27-Sep-18 18:07 37.599681 -119.391534 176 28906ft 413kts
27-Sep-18 18:08 37.484580 -119.380323 176 29266ft 419kts
27-Sep-18 18:09 37.368052 -119.365303 172 29266ft 424kts
27-Sep-18 18:10 37.255624 -119.342019 170 29264ft 429kts
27-Sep-18 18:11 37.139044 -119.314922 170 29264ft 433kts
27-Sep-18 18:12 37.020148 -119.290132 172 29263ft 435kts
27-Sep-18 18:13 36.900145 -119.267659 172 29127ft 440kts
27-Sep-18 18:14 36.789258 -119.246835 172 28967ft 445kts
27-Sep-18 18:15 36.666681 -119.226553 176 28857ft 444kts
27-Sep-18 18:16 36.544504 -119.214293 176 28858ft 439kts
27-Sep-18 18:17 36.423376 -119.202110 176 28858ft 436kts
27-Sep-18 18:18 36.302934 -119.189918 176 28858ft 435kts
27-Sep-18 18:19 36.182723 -119.177677 176 28858ft 434kts
27-Sep-18 18:20 36.063048 -119.164394 176 28855ft 435kts
27-Sep-18 18:21 35.942707 -119.151084 176 28860ft 437kts
27-Sep-18 18:22 35.844304 -119.140326 176 28858ft 439kts
27-Sep-18 18:23 35.722385 -119.127049 176 28859ft 443kts
27-Sep-18 18:24 35.599520 -119.112268 174 28859ft 447kts
27-Sep-18 18:25 35.476442 -119.091167 161 28837ft 452kts
27-Sep-18 18:26 35.381517 -118.993842 141 28863ft 453kts
27-Sep-18 18:27 35.282149 -118.899253 142 28860ft 456kts
27-Sep-18 18:28 35.181630 -118.805252 143 28869ft 458kts
27-Sep-18 18:29 35.080234 -118.713143 142 29085ft 455kts
27-Sep-18 18:30 35.000540 -118.595093 125 29105ft 455kts
27-Sep-18 18:31 34.923388 -118.475323 129 27600ft 446kts
27-Sep-18 18:32 34.855672 -118.382485 132 25780ft 428kts
27-Sep-18 18:33 34.778648 -118.283372 128 23982ft 416kts
27-Sep-18 18:34 34.708276 -118.172964 127 23965ft 416kts
27-Sep-18 18:35 34.632945 -118.067126 131 22789ft 412kts
27-Sep-18 18:36 34.579771 -117.949645 112 20456ft 397kts
27-Sep-18 18:37 34.527962 -117.834079 116 18212ft 387kts
27-Sep-18 18:38 34.476935 -117.721972 116 16067ft 375kts
27-Sep-18 18:39 34.425410 -117.614310 118 13967ft 366kts
27-Sep-18 18:40 34.375050 -117.510178 117 13019ft 359kts
27-Sep-18 18:41 34.326322 -117.407118 115 12389ft 350kts
27-Sep-18 18:42 34.275195 -117.310649 147 10365ft 342kts
27-Sep-18 18:43 34.199780 -117.257511 151 9382ft 287kts
27-Sep-18 18:44 34.133333 -117.211577 151 8357ft 252kts
27-Sep-18 18:45 34.074998 -117.218233 229 6686ft 240kts
27-Sep-18 18:46 34.056533 -117.293648 268 4786ft 239kts
27-Sep-18 18:47 34.056280 -117.372406 271 3758ft 229kts
27-Sep-18 18:48 34.055971 -117.439346 274 3484ft 163kts
27-Sep-18 18:49 34.057327 -117.488569 268 2436ft 132kts
27-Sep-18 18:50 34.056870 -117.532542 269 1803ft 130kts
27-Sep-18 18:51 34.056922 -117.576087 269 1103ft 129kts
27-Sep-18 18:52 34.056883 -117.605715 271 945ft 35kts
27-Sep-18 18:53 34.057835 -117.607774 5 945ft 0kts
27-Sep-18 18:54 34.057835 -117.607774 5 945ft 0kts

Navigation Log

Ident Type
Flight plan parsing failed, navigation log unavailable